createdAt,value
2022-11-16T00:04:19.909Z,48.70
2022-11-16T00:09:24.128Z,48.87
2022-11-16T00:14:28.470Z,48.80
2022-11-16T00:19:31.432Z,48.95
2022-11-16T00:24:35.772Z,48.77
2022-11-16T00:29:38.532Z,48.85
2022-11-16T00:34:41.333Z,48.82
2022-11-16T00:39:45.475Z,48.69
2022-11-16T00:44:48.777Z,48.91
2022-11-16T00:49:51.598Z,48.89
2022-11-16T00:54:55.887Z,49.12
2022-11-16T00:59:59.944Z,48.90
2022-11-16T01:05:02.864Z,49.13
2022-11-16T01:10:08.425Z,48.95
2022-11-16T01:15:11.506Z,48.84
2022-11-16T01:20:15.512Z,48.94
2022-11-16T01:25:19.994Z,48.93
2022-11-16T01:30:22.899Z,48.99
2022-11-16T01:35:35.011Z,49.12
2022-11-16T01:40:39.712Z,49.22
2022-11-16T01:45:42.831Z,49.07
2022-11-16T01:50:48.204Z,49.45
2022-11-16T01:55:52.947Z,49.14
2022-11-16T02:01:03.351Z,49.17
2022-11-16T02:06:31.670Z,49.21
2022-11-16T02:12:30.544Z,49.30
2022-11-16T02:17:40.081Z,49.22
2022-11-16T02:22:58.935Z,49.30
2022-11-16T02:28:13.976Z,49.31
2022-11-16T02:33:19.201Z,49.39
2022-11-16T02:38:24.565Z,49.60
2022-11-16T02:43:30.445Z,49.53
2022-11-16T02:48:45.204Z,49.56
2022-11-16T02:53:58.038Z,49.53
2022-11-16T02:59:01.853Z,49.52
2022-11-16T03:04:10.058Z,49.50
2022-11-16T03:09:13.724Z,49.74
2022-11-16T03:14:19.480Z,49.51
2022-11-16T03:19:27.760Z,49.62
2022-11-16T03:24:31.488Z,49.81
2022-11-16T03:29:36.495Z,49.56
2022-11-16T03:34:46.738Z,49.73
2022-11-16T03:39:49.749Z,49.75
2022-11-16T03:44:52.638Z,49.72
2022-11-16T03:49:56.862Z,49.96
2022-11-16T03:55:00.666Z,49.89
2022-11-16T04:00:04.072Z,50.05
2022-11-16T04:05:35.307Z,49.84
2022-11-16T04:10:56.008Z,50.06
2022-11-16T04:16:16.413Z,49.89
2022-11-16T04:21:43.445Z,49.89
2022-11-16T04:27:06.031Z,50.13
2022-11-16T04:32:26.632Z,50.23
2022-11-16T04:37:48.619Z,50.22
2022-11-16T04:42:54.974Z,50.07
2022-11-16T04:47:58.376Z,50.31
2022-11-16T04:53:07.559Z,50.07
2022-11-16T04:58:18.955Z,50.10
2022-11-16T05:03:22.048Z,50.34
2022-11-16T05:08:26.522Z,50.27
2022-11-16T05:13:30.436Z,50.21
2022-11-16T05:18:34.012Z,50.13
2022-11-16T05:23:56.703Z,49.94
2022-11-16T05:29:03.785Z,50.37
2022-11-16T05:34:06.776Z,50.37
2022-11-16T05:39:12.027Z,50.22
2022-11-16T05:44:17.102Z,50.32
2022-11-16T05:49:20.996Z,50.37
2022-11-16T05:54:26.111Z,50.60
2022-11-16T05:59:29.975Z,50.71
2022-11-16T06:04:35.442Z,50.92
2022-11-16T06:09:39.651Z,50.84
2022-11-16T06:14:50.276Z,51.27
2022-11-16T06:19:53.137Z,51.29
2022-11-16T06:24:57.708Z,50.98
2022-11-16T06:30:01.790Z,51.24
2022-11-16T06:35:05.538Z,51.40
2022-11-16T06:40:11.669Z,51.29
2022-11-16T06:45:18.280Z,51.35
2022-11-16T06:50:26.545Z,51.69
2022-11-16T06:55:30.888Z,52.03
2022-11-16T07:00:33.809Z,52.34
2022-11-16T07:05:40.213Z,52.13
2022-11-16T07:10:48.144Z,52.38
2022-11-16T07:15:51.162Z,52.60
2022-11-16T07:20:54.270Z,52.50
2022-11-16T07:26:02.187Z,52.95
2022-11-16T07:31:14.658Z,52.84
2022-11-16T07:36:18.055Z,52.96
2022-11-16T07:41:22.475Z,53.23
2022-11-16T07:46:48.749Z,53.31
2022-11-16T07:51:52.904Z,53.41
2022-11-16T07:57:17.341Z,53.80
2022-11-16T08:02:20.372Z,53.91
2022-11-16T08:07:25.057Z,51.56
2022-11-16T08:12:32.734Z,51.53
2022-11-16T08:17:35.702Z,50.15
2022-11-16T08:22:40.761Z,49.81
2022-11-16T08:27:47.646Z,40.59
2022-11-16T08:32:52.592Z,40.45
2022-11-16T08:37:55.739Z,40.17
2022-11-16T08:43:03.018Z,42.14
2022-11-16T08:48:06.292Z,43.31
2022-11-16T08:53:11.701Z,46.92
2022-11-16T08:58:16.114Z,49.05
2022-11-16T09:03:19.073Z,51.16
2022-11-16T09:08:21.910Z,52.59
2022-11-16T09:13:26.038Z,54.12
2022-11-16T09:18:29.157Z,54.76
2022-11-16T09:23:32.010Z,54.16
2022-11-16T09:28:36.672Z,53.17
2022-11-16T09:33:39.679Z,52.57
2022-11-16T09:44:10.807Z,51.65
2022-11-16T09:49:17.718Z,51.94
2022-11-16T09:54:22.712Z,52.31
2022-11-16T09:59:28.748Z,51.99
2022-11-16T10:04:36.846Z,51.99
2022-11-16T10:09:39.631Z,52.07
2022-11-16T10:15:01.592Z,51.92
2022-11-16T10:20:13.742Z,51.99
2022-11-16T10:25:17.144Z,52.05
2022-11-16T10:30:21.783Z,51.90
2022-11-16T10:35:26.819Z,51.97
2022-11-16T10:40:31.278Z,51.88
2022-11-16T10:45:39.036Z,51.95
2022-11-16T10:50:44.127Z,51.81
2022-11-16T10:55:47.096Z,51.72
2022-11-16T11:00:52.724Z,51.94
2022-11-16T11:05:55.665Z,52.01
2022-11-16T11:11:01.740Z,51.98
2022-11-16T11:16:18.892Z,51.79
2022-11-16T11:21:22.852Z,52.22
2022-11-16T11:26:36.267Z,52.30
2022-11-16T11:31:43.333Z,54.20
2022-11-16T11:36:48.058Z,55.63
2022-11-16T11:42:06.500Z,55.29
2022-11-16T11:52:53.373Z,54.62
2022-11-16T11:57:56.173Z,54.33
2022-11-16T12:03:12.674Z,54.05
2022-11-16T12:08:22.840Z,53.99
2022-11-16T12:13:42.226Z,53.95
2022-11-16T12:18:53.998Z,53.76
2022-11-16T12:24:04.375Z,53.71
2022-11-16T12:29:16.685Z,53.28
2022-11-16T12:34:26.926Z,53.48
2022-11-16T12:39:32.456Z,53.11
2022-11-16T12:44:44.989Z,53.22
2022-11-16T12:50:09.679Z,53.52
2022-11-16T12:55:26.019Z,53.58
2022-11-16T13:00:29.750Z,53.50
2022-11-16T13:05:44.302Z,53.86
2022-11-16T13:10:47.755Z,53.78
2022-11-16T13:15:50.534Z,54.16
2022-11-16T13:20:56.997Z,53.87
2022-11-16T13:26:02.683Z,53.86
2022-11-16T13:31:07.215Z,54.04
2022-11-16T13:36:44.995Z,53.66
2022-11-16T13:41:48.090Z,54.16
2022-11-16T13:46:56.527Z,54.38
2022-11-16T13:52:17.339Z,53.99
2022-11-16T13:57:26.116Z,54.24
2022-11-16T14:02:30.617Z,54.41
2022-11-16T14:07:43.221Z,54.42
2022-11-16T14:12:54.967Z,54.10
2022-11-16T14:18:00.340Z,54.18
2022-11-16T14:23:11.347Z,54.30
2022-11-16T14:28:40.184Z,54.59
2022-11-16T14:33:42.956Z,54.43
2022-11-16T14:38:47.590Z,54.49
2022-11-16T14:43:51.444Z,54.32
2022-11-16T14:48:55.525Z,54.26
2022-11-16T14:54:03.767Z,53.84
2022-11-16T14:59:06.487Z,53.71
2022-11-16T15:04:10.234Z,44.87
2022-11-16T15:09:17.854Z,46.18
2022-11-16T15:14:22.099Z,47.60
2022-11-16T15:19:25.024Z,47.95
2022-11-16T15:24:31.289Z,48.23
2022-11-16T15:29:34.913Z,47.84
2022-11-16T15:34:38.713Z,48.35
2022-11-16T15:39:42.839Z,48.32
2022-11-16T15:44:45.631Z,48.26
2022-11-16T15:49:49.648Z,48.18
2022-11-16T15:55:05.351Z,48.46
2022-11-16T16:00:22.844Z,48.42
2022-11-16T16:05:34.198Z,48.27
2022-11-16T16:10:38.330Z,48.18
2022-11-16T16:15:41.098Z,48.57
2022-11-16T16:20:47.738Z,48.72
2022-11-16T16:25:51.831Z,49.19
2022-11-16T16:30:54.557Z,48.91
2022-11-16T16:35:57.395Z,49.07
2022-11-16T16:41:02.904Z,48.87
2022-11-16T16:46:06.076Z,49.04
2022-11-16T16:51:12.161Z,49.86
2022-11-16T16:56:19.655Z,50.49
2022-11-16T17:01:22.546Z,50.87
2022-11-16T17:06:25.620Z,51.01
2022-11-16T17:11:29.908Z,50.72
2022-11-16T17:16:34.572Z,50.84
2022-11-16T17:21:37.333Z,50.83
2022-11-16T17:26:41.535Z,50.81
2022-11-16T17:31:44.877Z,50.80
2022-11-16T17:36:47.780Z,50.53
2022-11-16T17:41:51.888Z,50.37
2022-11-16T17:46:54.740Z,50.35
2022-11-16T17:51:57.491Z,50.35
2022-11-16T17:57:01.761Z,50.09
2022-11-16T18:02:04.532Z,49.85
2022-11-16T18:07:07.365Z,50.05
2022-11-16T18:12:11.534Z,49.84
2022-11-16T18:17:14.369Z,49.78
2022-11-16T18:22:17.130Z,49.75
2022-11-16T18:27:21.334Z,49.73
2022-11-16T18:32:24.070Z,49.70
2022-11-16T18:37:26.864Z,49.69
2022-11-16T18:42:30.976Z,49.72
2022-11-16T18:47:33.789Z,49.56
2022-11-16T18:52:36.509Z,49.71
2022-11-16T18:57:40.720Z,49.82
2022-11-16T19:02:43.467Z,49.83
2022-11-16T19:07:46.314Z,49.21
2022-11-16T19:12:50.436Z,49.29
2022-11-16T19:18:19.328Z,49.99
2022-11-16T19:23:16.065Z,50.13
2022-11-16T19:28:20.190Z,48.91
2022-11-16T19:33:22.994Z,48.60
2022-11-16T19:38:25.775Z,48.17
2022-11-16T19:43:29.885Z,47.80
2022-11-16T19:48:33.049Z,47.57
2022-11-16T19:53:36.237Z,47.57
2022-11-16T19:58:40.735Z,47.54
2022-11-16T20:03:43.471Z,47.50
2022-11-16T20:08:48.251Z,47.45
2022-11-16T20:13:52.928Z,47.22
2022-11-16T20:18:55.746Z,47.41
2022-11-16T20:24:04.731Z,46.25
2022-11-16T20:29:12.399Z,46.85
2022-11-16T20:34:15.667Z,46.71
2022-11-16T20:39:19.201Z,46.42
2022-11-16T20:44:23.403Z,46.35
2022-11-16T20:49:26.142Z,45.36
2022-11-16T20:54:29.610Z,45.14
2022-11-16T20:59:34.114Z,44.70
2022-11-16T21:04:36.935Z,44.61
2022-11-16T21:09:53.612Z,44.62
2022-11-16T21:14:57.789Z,44.71
2022-11-16T21:20:25.835Z,44.52
2022-11-16T21:25:24.815Z,44.26
2022-11-16T21:30:29.149Z,44.28
2022-11-16T21:35:31.992Z,44.27
2022-11-16T21:40:34.769Z,44.24
2022-11-16T21:45:38.882Z,44.59
2022-11-16T21:50:41.898Z,44.73
2022-11-16T21:55:49.537Z,45.14
2022-11-16T22:00:56.275Z,45.18
2022-11-16T22:06:17.254Z,45.45
2022-11-16T22:11:22.109Z,45.37
2022-11-16T22:16:26.535Z,45.48
2022-11-16T22:21:29.387Z,45.60
2022-11-16T22:26:32.230Z,45.98
2022-11-16T22:31:36.338Z,45.79
2022-11-16T22:36:39.294Z,45.51
2022-11-16T22:41:42.119Z,45.83
2022-11-16T22:46:46.423Z,45.93
2022-11-16T22:51:49.389Z,45.80
2022-11-16T22:56:52.203Z,45.86
2022-11-16T23:01:56.652Z,45.78
2022-11-16T23:07:00.450Z,46.10
2022-11-16T23:12:20.927Z,46.42
2022-11-16T23:17:25.154Z,46.51
2022-11-16T23:22:47.671Z,46.59
2022-11-16T23:27:53.700Z,46.66
2022-11-16T23:32:58.004Z,46.93
2022-11-16T23:38:01.326Z,46.93
2022-11-16T23:43:21.779Z,47.04
2022-11-16T23:48:25.954Z,47.26
2022-11-16T23:53:28.772Z,47.30
2022-11-16T23:58:31.531Z,47.24
